createdAt,value
2019-02-21T00:00:43.303Z,35.00
2019-02-21T00:03:16.055Z,33.53
2019-02-21T00:05:45.870Z,32.60
2019-02-21T00:11:39.700Z,33.45
2019-02-21T00:14:09.600Z,31.95
2019-02-21T00:20:08.055Z,34.78
2019-02-21T00:22:41.526Z,33.70
2019-02-21T00:25:11.537Z,33.50
2019-02-21T00:31:16.574Z,33.65
2019-02-21T00:33:49.490Z,34.30
2019-02-21T00:36:19.373Z,33.57
2019-02-21T00:42:24.706Z,34.08
2019-02-21T00:44:55.593Z,33.85
2019-02-21T00:50:49.375Z,35.90
2019-02-21T00:53:19.246Z,37.08
2019-02-21T00:55:49.089Z,35.78
2019-02-21T01:01:53.893Z,31.68
2019-02-21T01:04:23.807Z,31.50
2019-02-21T01:06:53.712Z,33.88
2019-02-21T01:09:26.104Z,35.35
2019-02-21T01:11:56.085Z,33.45
2019-02-21T01:14:25.972Z,33.65
2019-02-21T01:20:19.812Z,35.70
2019-02-21T01:22:49.705Z,36.60
2019-02-21T01:25:19.592Z,35.68
2019-02-21T01:31:12.524Z,35.45
2019-02-21T01:33:42.433Z,35.98
2019-02-21T01:36:12.237Z,35.50
2019-02-21T01:41:54.693Z,33.78
2019-02-21T01:44:24.585Z,35.33
2019-02-21T01:50:18.301Z,35.80
2019-02-21T01:52:49.657Z,35.83
2019-02-21T01:55:19.554Z,36.38
2019-02-21T02:01:14.403Z,39.95
2019-02-21T02:03:44.190Z,46.98
2019-02-21T02:06:14.034Z,54.67
2019-02-21T02:08:43.897Z,51.20
2019-02-21T02:11:13.794Z,56.37
2019-02-21T02:13:43.707Z,67.62
2019-02-21T02:16:16.398Z,68.30
2019-02-21T02:22:21.554Z,48.70
2019-02-21T02:24:51.464Z,45.00
2019-02-21T02:30:46.334Z,39.23
2019-02-21T02:33:16.209Z,36.15
2019-02-21T02:35:46.095Z,35.75
2019-02-21T02:41:40.509Z,41.70
2019-02-21T02:44:10.459Z,43.90
2019-02-21T02:49:52.073Z,43.58
2019-02-21T02:52:21.959Z,38.98
2019-02-21T02:54:51.783Z,36.98
2019-02-21T03:00:45.569Z,35.78
2019-02-21T03:03:15.462Z,35.25
2019-02-21T03:05:45.350Z,35.68
2019-02-21T03:11:53.341Z,35.65
2019-02-21T03:14:24.178Z,36.00
2019-02-21T03:20:17.787Z,35.65
2019-02-21T03:22:47.615Z,36.73
2019-02-21T03:25:20.628Z,35.17
2019-02-21T03:31:14.222Z,34.35
2019-02-21T03:33:44.047Z,35.10
2019-02-21T03:36:15.199Z,35.80
2019-02-21T03:42:32.901Z,36.63
2019-02-21T03:45:02.750Z,37.03
2019-02-21T03:50:56.479Z,36.80
2019-02-21T03:53:26.338Z,35.98
2019-02-21T03:55:56.234Z,35.25
2019-02-21T04:02:13.725Z,35.40
2019-02-21T04:04:43.629Z,34.48
2019-02-21T04:10:25.972Z,37.60
2019-02-21T04:12:55.866Z,37.55
2019-02-21T04:15:25.755Z,38.30
2019-02-21T04:21:30.635Z,38.95
2019-02-21T04:24:00.537Z,38.73
2019-02-21T04:26:30.343Z,37.83
2019-02-21T04:29:00.162Z,41.65
2019-02-21T04:31:29.998Z,43.25
2019-02-21T04:33:59.831Z,47.63
2019-02-21T04:39:54.057Z,51.90
2019-02-21T04:42:23.934Z,53.58
2019-02-21T04:44:53.751Z,63.45
2019-02-21T04:51:11.567Z,58.10
2019-02-21T04:53:44.418Z,53.13
2019-02-21T04:56:17.362Z,56.57
2019-02-21T04:58:48.761Z,51.58
2019-02-21T05:01:20.215Z,59.07
2019-02-21T05:03:50.031Z,51.02
2019-02-21T05:06:20.026Z,52.08
2019-02-21T05:12:25.441Z,60.15
2019-02-21T05:14:55.354Z,55.50
2019-02-21T05:20:48.941Z,66.62
2019-02-21T05:26:44.184Z,73.37
2019-02-21T05:29:14.775Z,73.55
2019-02-21T05:31:52.374Z,74.27
2019-02-21T05:34:23.872Z,60.38
2019-02-21T05:40:28.485Z,53.17
2019-02-21T05:46:22.841Z,86.55
2019-02-21T05:48:54.267Z,63.08
2019-02-21T05:51:28.456Z,58.73
2019-02-21T05:54:12.766Z,50.52
2019-02-21T05:56:50.789Z,54.35
2019-02-21T05:59:31.514Z,70.50
2019-02-21T06:02:19.276Z,71.57
2019-02-21T06:05:08.856Z,88.92
2019-02-21T06:07:47.625Z,83.70
2019-02-21T06:10:34.506Z,78.37
2019-02-21T06:13:08.915Z,70.83
2019-02-21T06:15:43.357Z,88.05
2019-02-21T06:18:20.942Z,98.43
2019-02-21T06:21:01.006Z,62.60
2019-02-21T06:23:49.350Z,60.25
2019-02-21T06:26:33.234Z,58.98
2019-02-21T06:29:09.699Z,56.95
2019-02-21T06:31:38.720Z,56.98
2019-02-21T06:34:08.545Z,63.42
2019-02-21T06:36:41.295Z,60.95
2019-02-21T06:39:11.215Z,61.80
2019-02-21T06:41:42.823Z,63.80
2019-02-21T06:44:12.563Z,60.57
2019-02-21T06:46:42.559Z,57.43
2019-02-21T06:49:12.300Z,54.80
2019-02-21T06:51:42.212Z,59.38
2019-02-21T06:54:12.146Z,60.80
2019-02-21T06:56:42.113Z,58.80
2019-02-21T06:59:11.959Z,59.53
2019-02-21T07:01:41.849Z,58.40
2019-02-21T07:04:12.706Z,55.60
2019-02-21T07:06:42.570Z,55.25
2019-02-21T07:09:12.406Z,52.53
2019-02-21T07:11:42.334Z,51.60
2019-02-21T07:14:13.160Z,53.00
2019-02-21T07:16:43.528Z,51.97
2019-02-21T07:19:14.034Z,53.20
2019-02-21T07:21:43.929Z,52.23
2019-02-21T07:24:14.178Z,49.48
2019-02-21T07:26:44.114Z,48.60
2019-02-21T07:29:14.145Z,46.63
2019-02-21T07:31:43.976Z,48.65
2019-02-21T07:34:13.817Z,52.00
2019-02-21T07:36:43.742Z,72.23
2019-02-21T07:39:18.365Z,67.82
2019-02-21T07:41:45.060Z,71.28
2019-02-21T07:44:14.732Z,64.60
2019-02-21T07:46:46.354Z,61.70
2019-02-21T07:49:16.016Z,53.42
2019-02-21T07:51:45.820Z,51.92
2019-02-21T07:54:15.719Z,50.58
2019-02-21T07:56:45.637Z,49.90
2019-02-21T07:59:15.504Z,49.13
2019-02-21T08:01:45.328Z,52.13
2019-02-21T08:04:15.263Z,54.25
2019-02-21T08:06:45.264Z,50.95
2019-02-21T08:09:15.084Z,46.08
2019-02-21T08:11:44.960Z,47.75
2019-02-21T08:14:16.147Z,53.17
2019-02-21T08:16:46.352Z,50.75
2019-02-21T08:19:16.197Z,49.55
2019-02-21T08:21:46.054Z,50.98
2019-02-21T08:24:15.899Z,50.50
2019-02-21T08:26:46.649Z,43.90
2019-02-21T08:29:16.473Z,45.53
2019-02-21T08:31:46.413Z,52.27
2019-02-21T08:34:20.874Z,52.33
2019-02-21T08:36:50.891Z,51.70
2019-02-21T08:39:20.678Z,56.43
2019-02-21T08:41:50.548Z,54.48
2019-02-21T08:44:21.389Z,53.68
2019-02-21T08:46:53.409Z,59.30
2019-02-21T08:49:22.856Z,55.17
2019-02-21T08:51:54.993Z,51.23
2019-02-21T08:54:24.219Z,58.33
2019-02-21T08:56:54.067Z,49.75
2019-02-21T08:59:23.982Z,50.65
2019-02-21T09:01:53.852Z,47.77
2019-02-21T09:04:27.308Z,46.05
2019-02-21T09:06:55.301Z,47.70
2019-02-21T09:09:25.218Z,53.45
2019-02-21T09:11:55.155Z,46.10
2019-02-21T09:14:25.051Z,45.30
2019-02-21T09:16:54.915Z,42.20
2019-02-21T09:19:24.769Z,39.15
2019-02-21T09:21:54.587Z,37.93
2019-02-21T09:24:37.748Z,37.78
2019-02-21T09:26:58.124Z,36.77
2019-02-21T09:29:27.881Z,36.10
2019-02-21T09:32:06.763Z,35.00
2019-02-21T09:34:29.281Z,34.73
2019-02-21T09:36:59.129Z,34.75
2019-02-21T09:39:28.896Z,36.48
2019-02-21T09:41:59.747Z,35.73
2019-02-21T09:44:29.649Z,37.08
2019-02-21T09:47:01.525Z,36.30
2019-02-21T09:49:31.203Z,34.92
2019-02-21T09:52:01.049Z,35.90
2019-02-21T09:54:30.930Z,37.23
2019-02-21T09:57:00.622Z,39.10
2019-02-21T09:59:31.627Z,42.43
2019-02-21T10:02:02.238Z,40.08
2019-02-21T10:04:32.612Z,38.38
2019-02-21T10:07:02.536Z,34.75
2019-02-21T10:09:32.478Z,35.78
2019-02-21T10:12:02.349Z,35.13
2019-02-21T10:14:32.284Z,34.08
2019-02-21T10:17:03.586Z,35.65
2019-02-21T10:19:35.589Z,34.53
2019-02-21T10:22:04.940Z,31.82
2019-02-21T10:24:34.754Z,32.33
2019-02-21T10:27:04.814Z,32.35
2019-02-21T10:29:34.694Z,31.43
2019-02-21T10:32:04.529Z,31.73
2019-02-21T10:34:42.742Z,30.50
2019-02-21T10:37:05.877Z,30.60
2019-02-21T10:39:35.769Z,28.60
2019-02-21T10:42:05.643Z,29.85
2019-02-21T10:44:35.449Z,27.80
2019-02-21T10:47:05.395Z,29.12
2019-02-21T10:49:36.245Z,29.05
2019-02-21T10:52:06.049Z,27.52
2019-02-21T10:54:35.913Z,28.40
2019-02-21T10:57:05.789Z,28.85
2019-02-21T10:59:45.954Z,27.30
2019-02-21T11:02:07.374Z,27.77
2019-02-21T11:04:37.137Z,28.35
2019-02-21T11:07:07.042Z,27.82
2019-02-21T11:09:36.873Z,27.37
2019-02-21T11:12:06.859Z,27.63
2019-02-21T11:14:46.951Z,26.37
2019-02-21T11:17:08.343Z,25.45
2019-02-21T11:19:38.106Z,24.13
2019-02-21T11:22:08.001Z,22.67
2019-02-21T11:24:37.962Z,21.97
2019-02-21T11:27:07.891Z,20.00
2019-02-21T11:29:38.350Z,16.80
2019-02-21T11:32:08.317Z,16.03
2019-02-21T11:34:38.277Z,15.70
2019-02-21T11:37:08.232Z,15.70
2019-02-21T11:39:38.122Z,14.80
2019-02-21T11:42:08.002Z,13.83
2019-02-21T11:44:37.890Z,15.10
2019-02-21T11:47:08.358Z,15.43
2019-02-21T11:49:38.278Z,14.93
2019-02-21T11:52:10.416Z,14.50
2019-02-21T11:54:55.652Z,14.10
2019-02-21T11:57:26.528Z,13.40
2019-02-21T11:59:57.113Z,14.10
2019-02-21T12:02:26.981Z,13.20
2019-02-21T12:04:56.865Z,13.20
2019-02-21T12:07:26.845Z,12.33
2019-02-21T12:09:56.674Z,10.93
2019-02-21T12:12:26.479Z,9.53
2019-02-21T12:14:56.320Z,9.88
2019-02-21T12:17:26.219Z,9.05
2019-02-21T12:19:56.067Z,9.08
2019-02-21T12:22:25.914Z,8.00
2019-02-21T12:24:55.663Z,8.05
2019-02-21T12:27:25.447Z,8.38
2019-02-21T12:29:55.270Z,7.40
2019-02-21T12:32:25.090Z,7.35
2019-02-21T12:34:54.977Z,7.67
2019-02-21T12:37:24.870Z,8.13
2019-02-21T12:39:54.754Z,7.83
2019-02-21T12:42:24.512Z,7.80
2019-02-21T12:44:54.628Z,8.03
2019-02-21T12:47:24.539Z,7.55
2019-02-21T12:49:55.392Z,7.70
2019-02-21T12:52:26.581Z,7.92
2019-02-21T12:54:56.348Z,7.30
2019-02-21T12:57:26.283Z,8.00
2019-02-21T12:59:56.106Z,7.80
2019-02-21T13:02:25.851Z,8.43
2019-02-21T13:04:55.696Z,8.28
2019-02-21T13:07:25.538Z,8.28
2019-02-21T13:09:55.464Z,8.50
2019-02-21T13:12:25.287Z,8.17
2019-02-21T13:14:55.189Z,8.20
2019-02-21T13:17:24.978Z,8.13
2019-02-21T13:19:54.789Z,7.50
2019-02-21T13:22:24.614Z,6.95
2019-02-21T13:24:54.381Z,6.40
2019-02-21T13:27:24.191Z,6.33
2019-02-21T13:29:54.741Z,6.67
2019-02-21T13:32:25.727Z,6.20
2019-02-21T13:34:55.562Z,6.10
2019-02-21T13:37:28.552Z,5.60
2019-02-21T13:39:56.895Z,5.77
2019-02-21T13:42:28.809Z,6.25
2019-02-21T13:44:58.143Z,6.37
2019-02-21T13:47:27.988Z,6.15
2019-02-21T13:49:57.871Z,6.05
2019-02-21T13:52:27.714Z,5.92
2019-02-21T13:54:57.586Z,5.80
2019-02-21T13:57:27.473Z,6.47
2019-02-21T13:59:57.259Z,6.12
2019-02-21T14:02:27.143Z,5.90
2019-02-21T14:04:58.809Z,5.90
2019-02-21T14:07:28.420Z,5.50
2019-02-21T14:09:58.185Z,6.07
2019-02-21T14:12:29.171Z,5.90
2019-02-21T14:14:59.012Z,6.62
2019-02-21T14:17:28.883Z,6.22
2019-02-21T14:19:58.730Z,6.25
2019-02-21T14:22:28.638Z,6.03
2019-02-21T14:24:58.393Z,6.40
2019-02-21T14:27:28.342Z,6.75
2019-02-21T14:29:58.309Z,7.03
2019-02-21T14:32:28.065Z,6.13
2019-02-21T14:34:57.996Z,6.17
2019-02-21T14:37:27.856Z,6.85
2019-02-21T14:39:57.697Z,7.10
2019-02-21T14:42:27.561Z,7.10
2019-02-21T14:44:57.351Z,5.60
2019-02-21T14:47:27.607Z,6.35
2019-02-21T14:49:57.532Z,5.70
2019-02-21T14:52:27.367Z,5.50
2019-02-21T14:54:58.239Z,6.10
2019-02-21T14:57:28.064Z,6.15
2019-02-21T14:59:57.873Z,6.33
2019-02-21T15:02:27.635Z,5.97
2019-02-21T15:04:57.448Z,6.75
2019-02-21T15:07:27.204Z,7.00
2019-02-21T15:09:57.022Z,7.25
2019-02-21T15:12:26.795Z,7.30
2019-02-21T15:14:56.514Z,7.42
2019-02-21T15:17:26.284Z,7.47
2019-02-21T15:19:56.163Z,6.83
2019-02-21T15:22:26.076Z,7.17
2019-02-21T15:24:55.833Z,7.17
2019-02-21T15:27:26.676Z,7.12
2019-02-21T15:29:57.495Z,7.47
2019-02-21T15:32:27.492Z,7.22
2019-02-21T15:34:57.296Z,8.35
2019-02-21T15:37:27.170Z,7.78
2019-02-21T15:39:56.983Z,7.85
2019-02-21T15:42:26.812Z,8.07
2019-02-21T15:44:56.642Z,8.40
2019-02-21T15:47:26.484Z,8.40
2019-02-21T15:49:56.341Z,7.83
2019-02-21T15:52:26.164Z,7.75
2019-02-21T15:54:55.929Z,7.10
2019-02-21T15:57:25.901Z,7.90
2019-02-21T15:59:56.174Z,7.55
2019-02-21T16:02:25.967Z,7.90
2019-02-21T16:04:55.861Z,8.10
2019-02-21T16:07:25.592Z,8.33
2019-02-21T16:09:55.415Z,7.65
2019-02-21T16:12:25.359Z,8.70
2019-02-21T16:14:55.183Z,8.03
2019-02-21T16:17:25.000Z,7.83
2019-02-21T16:19:54.838Z,7.97
2019-02-21T16:22:24.577Z,8.43
2019-02-21T16:24:54.428Z,8.33
2019-02-21T16:27:24.295Z,7.50
2019-02-21T16:29:54.158Z,7.70
2019-02-21T16:32:24.030Z,7.55
2019-02-21T16:34:55.367Z,7.72
2019-02-21T16:37:25.230Z,8.17
2019-02-21T16:39:55.165Z,8.13
2019-02-21T16:42:25.053Z,7.45
2019-02-21T16:44:55.046Z,7.60
2019-02-21T16:47:24.784Z,7.33
2019-02-21T16:49:54.641Z,6.53
2019-02-21T16:52:24.472Z,6.12
2019-02-21T16:54:54.265Z,6.53
2019-02-21T16:57:24.071Z,6.30
2019-02-21T16:59:53.873Z,7.00
2019-02-21T17:02:23.783Z,6.83
2019-02-21T17:04:55.713Z,7.22
2019-02-21T17:07:26.156Z,7.42
2019-02-21T17:09:56.053Z,7.22
2019-02-21T17:12:25.860Z,7.90
2019-02-21T17:14:55.737Z,7.85
2019-02-21T17:17:25.652Z,8.60
2019-02-21T17:19:55.529Z,8.93
2019-02-21T17:22:25.455Z,8.98
2019-02-21T17:24:56.921Z,10.08
2019-02-21T17:27:26.983Z,10.40
2019-02-21T17:29:59.193Z,11.18
2019-02-21T17:32:28.300Z,11.88
2019-02-21T17:34:58.232Z,12.68
2019-02-21T17:37:28.164Z,11.23
2019-02-21T17:39:59.648Z,11.48
2019-02-21T17:42:29.516Z,11.60
2019-02-21T17:44:59.328Z,12.83
2019-02-21T17:47:29.195Z,13.62
2019-02-21T17:49:59.086Z,13.60
2019-02-21T17:52:28.954Z,13.65
2019-02-21T17:54:58.841Z,12.90
2019-02-21T17:57:28.612Z,12.50
2019-02-21T17:59:58.512Z,13.28
2019-02-21T18:02:28.374Z,14.28
2019-02-21T18:04:58.317Z,13.73
2019-02-21T18:07:36.051Z,14.73
2019-02-21T18:09:59.554Z,15.25
2019-02-21T18:12:29.410Z,14.27
2019-02-21T18:14:59.321Z,15.63
2019-02-21T18:17:29.115Z,15.70
2019-02-21T18:19:58.994Z,14.55
2019-02-21T18:22:28.853Z,15.48
2019-02-21T18:24:58.721Z,16.15
2019-02-21T18:27:28.618Z,16.82
2019-02-21T18:29:58.433Z,16.87
2019-02-21T18:32:28.312Z,17.20
2019-02-21T18:34:58.076Z,17.13
2019-02-21T18:37:28.732Z,18.07
2019-02-21T18:39:58.550Z,18.95
2019-02-21T18:42:28.437Z,20.77
2019-02-21T18:44:58.333Z,21.43
2019-02-21T18:47:28.196Z,20.92
2019-02-21T18:49:58.015Z,21.10
2019-02-21T18:52:27.775Z,21.40
2019-02-21T18:54:57.702Z,21.20
2019-02-21T18:57:27.598Z,21.65
2019-02-21T18:59:57.583Z,23.55
2019-02-21T19:02:27.355Z,23.95
2019-02-21T19:04:57.223Z,24.30
2019-02-21T19:07:27.129Z,23.90
2019-02-21T19:09:56.949Z,24.30
2019-02-21T19:12:26.799Z,26.55
2019-02-21T19:14:56.717Z,25.82
2019-02-21T19:17:26.712Z,27.82
2019-02-21T19:19:56.634Z,28.60
2019-02-21T19:22:26.635Z,28.65
2019-02-21T19:24:56.410Z,29.72
2019-02-21T19:27:36.667Z,31.42
2019-02-21T19:29:57.668Z,32.03
2019-02-21T19:32:27.516Z,33.35
2019-02-21T19:34:57.369Z,33.75
2019-02-21T19:37:27.212Z,34.43
2019-02-21T19:39:56.949Z,34.03
2019-02-21T19:42:29.794Z,35.23
2019-02-21T19:44:59.637Z,35.98
2019-02-21T19:47:29.564Z,36.35
2019-02-21T19:49:59.443Z,36.93
2019-02-21T19:52:30.283Z,37.37
2019-02-21T19:55:00.312Z,37.17
2019-02-21T19:57:30.235Z,37.60
2019-02-21T20:00:00.048Z,39.03
2019-02-21T20:02:29.944Z,40.20
2019-02-21T20:04:59.821Z,40.48
2019-02-21T20:07:29.781Z,39.58
2019-02-21T20:09:59.657Z,41.18
2019-02-21T20:12:29.471Z,41.90
2019-02-21T20:14:59.274Z,39.27
2019-02-21T20:17:29.148Z,41.15
2019-02-21T20:19:59.057Z,40.73
2019-02-21T20:22:28.877Z,42.05
2019-02-21T20:24:58.705Z,40.28
2019-02-21T20:27:28.771Z,39.95
2019-02-21T20:29:58.605Z,37.85
2019-02-21T20:32:28.517Z,38.15
2019-02-21T20:34:58.508Z,39.23
2019-02-21T20:37:28.297Z,39.15
2019-02-21T20:39:58.152Z,39.67
2019-02-21T20:42:27.905Z,37.80
2019-02-21T20:44:57.791Z,38.95
2019-02-21T20:47:27.613Z,38.55
2019-02-21T20:49:57.515Z,39.90
2019-02-21T20:52:27.359Z,39.83
2019-02-21T20:54:57.200Z,40.35
2019-02-21T20:57:28.059Z,39.78
2019-02-21T20:59:57.928Z,39.70
2019-02-21T21:02:27.676Z,40.52
2019-02-21T21:04:57.593Z,39.53
2019-02-21T21:07:27.506Z,39.95
2019-02-21T21:09:57.373Z,38.17
2019-02-21T21:12:27.206Z,40.20
2019-02-21T21:14:57.047Z,38.98
2019-02-21T21:17:26.932Z,37.55
2019-02-21T21:19:56.886Z,36.50
2019-02-21T21:22:26.777Z,37.47
2019-02-21T21:24:56.680Z,37.48
2019-02-21T21:27:26.616Z,35.33
2019-02-21T21:29:56.430Z,32.90
2019-02-21T21:32:26.288Z,33.00
2019-02-21T21:34:56.167Z,32.67
2019-02-21T21:37:26.054Z,32.78
2019-02-21T21:39:56.177Z,35.03
2019-02-21T21:42:25.984Z,33.45
2019-02-21T21:44:55.916Z,34.30
2019-02-21T21:47:25.738Z,34.65
2019-02-21T21:49:55.588Z,36.33
2019-02-21T21:52:25.471Z,39.80
2019-02-21T21:54:55.316Z,39.45
2019-02-21T21:57:25.243Z,41.02
2019-02-21T21:59:55.166Z,35.35
2019-02-21T22:02:24.930Z,34.00
2019-02-21T22:04:54.886Z,34.05
2019-02-21T22:07:26.388Z,35.17
2019-02-21T22:09:56.264Z,39.55
2019-02-21T22:12:26.153Z,44.73
2019-02-21T22:14:56.043Z,46.03
2019-02-21T22:17:25.922Z,48.60
2019-02-21T22:19:55.735Z,47.10
2019-02-21T22:22:25.638Z,47.33
2019-02-21T22:24:55.471Z,45.95
2019-02-21T22:27:25.233Z,46.15
2019-02-21T22:29:55.039Z,47.20
2019-02-21T22:32:25.014Z,48.70
2019-02-21T22:34:54.849Z,47.25
2019-02-21T22:37:24.804Z,47.15
2019-02-21T22:39:54.616Z,50.48
2019-02-21T22:42:24.444Z,48.15
2019-02-21T22:44:54.262Z,49.20
2019-02-21T22:47:24.144Z,49.20
2019-02-21T22:49:53.904Z,48.40
2019-02-21T22:52:23.719Z,48.42
2019-02-21T22:54:53.402Z,50.15
2019-02-21T22:57:23.288Z,49.95
2019-02-21T22:59:53.189Z,50.60
2019-02-21T23:02:23.116Z,50.48
2019-02-21T23:04:56.943Z,52.15
2019-02-21T23:07:29.656Z,48.20
2019-02-21T23:09:59.480Z,48.17
2019-02-21T23:12:29.300Z,50.55
2019-02-21T23:14:59.132Z,50.83
2019-02-21T23:17:28.992Z,53.48
2019-02-21T23:19:59.764Z,51.20
2019-02-21T23:22:29.621Z,48.73
2019-02-21T23:24:59.379Z,47.88
2019-02-21T23:27:29.229Z,47.73
2019-02-21T23:29:59.058Z,47.20
2019-02-21T23:32:28.868Z,47.25
2019-02-21T23:34:59.197Z,47.98
2019-02-21T23:37:29.037Z,44.88
2019-02-21T23:39:58.714Z,43.65
2019-02-21T23:42:28.606Z,41.98
2019-02-21T23:44:58.448Z,43.50
2019-02-21T23:47:28.411Z,44.17
2019-02-21T23:49:58.156Z,42.77
2019-02-21T23:52:27.898Z,41.75
2019-02-21T23:54:58.005Z,43.00
2019-02-21T23:57:27.955Z,38.92
2019-02-21T23:59:57.706Z,39.90
